sensor_id;sensor_type;location;lat;lon;timestamp;P1;durP1;ratioP1;P2;durP2;ratioP2
8610;SDS011;4343;53.648;10.098;2022-08-11T00:00:19;2.10;;;2.00;;
8610;SDS011;4343;53.648;10.098;2022-08-11T00:03:05;1.85;;;1.80;;
8610;SDS011;4343;53.648;10.098;2022-08-11T00:05:46;2.00;;;1.90;;
8610;SDS011;4343;53.648;10.098;2022-08-11T00:08:24;2.08;;;1.98;;
8610;SDS011;4343;53.648;10.098;2022-08-11T00:11:02;3.30;;;2.20;;
8610;SDS011;4343;53.648;10.098;2022-08-11T00:13:41;2.40;;;1.90;;
8610;SDS011;4343;53.648;10.098;2022-08-11T00:16:19;1.92;;;1.83;;
8610;SDS011;4343;53.648;10.098;2022-08-11T00:18:50;2.13;;;1.95;;
8610;SDS011;4343;53.648;10.098;2022-08-11T00:21:21;2.00;;;1.80;;
8610;SDS011;4343;53.648;10.098;2022-08-11T00:24:17;1.90;;;1.80;;
8610;SDS011;4343;53.648;10.098;2022-08-11T00:26:52;4.43;;;2.20;;
8610;SDS011;4343;53.648;10.098;2022-08-11T00:29:34;1.95;;;1.90;;
8610;SDS011;4343;53.648;10.098;2022-08-11T00:32:02;2.10;;;2.00;;
8610;SDS011;4343;53.648;10.098;2022-08-11T00:34:36;4.28;;;2.25;;
8610;SDS011;4343;53.648;10.098;2022-08-11T00:37:18;2.20;;;2.10;;
8610;SDS011;4343;53.648;10.098;2022-08-11T00:39:49;2.08;;;1.80;;
8610;SDS011;4343;53.648;10.098;2022-08-11T00:55:30;2.40;;;2.17;;
8610;SDS011;4343;53.648;10.098;2022-08-11T01:02:38;2.10;;;2.00;;
8610;SDS011;4343;53.648;10.098;2022-08-11T01:05:13;1.88;;;1.77;;
8610;SDS011;4343;53.648;10.098;2022-08-11T01:08:10;2.25;;;2.03;;
8610;SDS011;4343;53.648;10.098;2022-08-11T01:26:45;2.85;;;1.90;;
8610;SDS011;4343;53.648;10.098;2022-08-11T01:35:57;2.22;;;1.80;;
8610;SDS011;4343;53.648;10.098;2022-08-11T01:41:58;2.20;;;2.08;;
8610;SDS011;4343;53.648;10.098;2022-08-11T01:51:16;2.13;;;2.03;;
8610;SDS011;4343;53.648;10.098;2022-08-11T01:54:22;2.25;;;2.15;;
8610;SDS011;4343;53.648;10.098;2022-08-11T01:57:09;1.88;;;1.80;;
8610;SDS011;4343;53.648;10.098;2022-08-11T02:00:16;4.07;;;2.28;;
8610;SDS011;4343;53.648;10.098;2022-08-11T02:05:55;1.80;;;1.70;;
8610;SDS011;4343;53.648;10.098;2022-08-11T02:09:01;2.20;;;2.10;;
8610;SDS011;4343;53.648;10.098;2022-08-11T02:18:17;2.20;;;2.00;;
8610;SDS011;4343;53.648;10.098;2022-08-11T02:21:11;2.33;;;2.13;;
8610;SDS011;4343;53.648;10.098;2022-08-11T02:24:04;2.15;;;2.05;;
8610;SDS011;4343;53.648;10.098;2022-08-11T02:26:48;1.98;;;1.88;;
8610;SDS011;4343;53.648;10.098;2022-08-11T02:32:04;2.03;;;1.92;;
8610;SDS011;4343;53.648;10.098;2022-08-11T02:40:15;2.28;;;2.17;;
8610;SDS011;4343;53.648;10.098;2022-08-11T02:43:08;2.60;;;2.33;;
8610;SDS011;4343;53.648;10.098;2022-08-11T02:48:52;2.20;;;2.10;;
8610;SDS011;4343;53.648;10.098;2022-08-11T02:52:02;2.25;;;2.05;;
8610;SDS011;4343;53.648;10.098;2022-08-11T02:54:36;2.60;;;2.40;;
8610;SDS011;4343;53.648;10.098;2022-08-11T02:57:12;2.42;;;2.33;;
8610;SDS011;4343;53.648;10.098;2022-08-11T03:00:09;2.10;;;2.00;;
8610;SDS011;4343;53.648;10.098;2022-08-11T03:02:40;2.10;;;2.00;;
8610;SDS011;4343;53.648;10.098;2022-08-11T03:05:32;1.90;;;1.80;;
8610;SDS011;4343;53.648;10.098;2022-08-11T03:08:28;2.35;;;2.25;;
8610;SDS011;4343;53.648;10.098;2022-08-11T03:17:29;2.00;;;1.90;;
8610;SDS011;4343;53.648;10.098;2022-08-11T03:20:08;2.22;;;2.13;;
8610;SDS011;4343;53.648;10.098;2022-08-11T03:28:36;1.85;;;1.85;;
8610;SDS011;4343;53.648;10.098;2022-08-11T03:31:27;1.90;;;1.90;;
8610;SDS011;4343;53.648;10.098;2022-08-11T03:42:11;1.95;;;1.85;;
8610;SDS011;4343;53.648;10.098;2022-08-11T04:18:41;1.95;;;1.85;;
8610;SDS011;4343;53.648;10.098;2022-08-11T04:22:02;2.20;;;2.00;;
8610;SDS011;4343;53.648;10.098;2022-08-11T04:24:19;2.17;;;2.08;;
8610;SDS011;4343;53.648;10.098;2022-08-11T04:35:43;1.92;;;1.83;;
8610;SDS011;4343;53.648;10.098;2022-08-11T05:01:05;2.50;;;2.30;;
8610;SDS011;4343;53.648;10.098;2022-08-11T05:12:40;2.65;;;2.50;;
8610;SDS011;4343;53.648;10.098;2022-08-11T05:15:15;2.58;;;2.38;;
8610;SDS011;4343;53.648;10.098;2022-08-11T05:18:06;3.00;;;2.20;;
8610;SDS011;4343;53.648;10.098;2022-08-11T05:20:57;1.95;;;1.88;;
8610;SDS011;4343;53.648;10.098;2022-08-11T05:23:57;2.50;;;2.40;;
8610;SDS011;4343;53.648;10.098;2022-08-11T05:26:49;2.42;;;2.28;;
8610;SDS011;4343;53.648;10.098;2022-08-11T05:29:37;2.38;;;2.28;;
8610;SDS011;4343;53.648;10.098;2022-08-11T05:32:34;2.97;;;2.78;;
8610;SDS011;4343;53.648;10.098;2022-08-11T05:35:25;3.08;;;2.88;;
8610;SDS011;4343;53.648;10.098;2022-08-11T05:37:56;2.45;;;2.33;;
8610;SDS011;4343;53.648;10.098;2022-08-11T05:40:46;2.35;;;2.25;;
8610;SDS011;4343;53.648;10.098;2022-08-11T05:46:17;2.70;;;2.50;;
8610;SDS011;4343;53.648;10.098;2022-08-11T05:49:06;2.00;;;2.00;;
8610;SDS011;4343;53.648;10.098;2022-08-11T05:51:52;2.70;;;2.17;;
8610;SDS011;4343;53.648;10.098;2022-08-11T05:54:38;3.85;;;2.30;;
8610;SDS011;4343;53.648;10.098;2022-08-11T05:57:26;3.22;;;2.50;;
8610;SDS011;4343;53.648;10.098;2022-08-11T05:59:58;3.50;;;2.58;;
8610;SDS011;4343;53.648;10.098;2022-08-11T06:02:25;2.55;;;2.22;;
8610;SDS011;4343;53.648;10.098;2022-08-11T06:04:58;2.92;;;2.60;;
8610;SDS011;4343;53.648;10.098;2022-08-11T06:07:26;3.08;;;2.83;;
8610;SDS011;4343;53.648;10.098;2022-08-11T06:09:54;2.58;;;2.47;;
8610;SDS011;4343;53.648;10.098;2022-08-11T06:12:30;2.60;;;2.40;;
8610;SDS011;4343;53.648;10.098;2022-08-11T06:15:03;3.47;;;2.55;;
8610;SDS011;4343;53.648;10.098;2022-08-11T06:17:31;2.65;;;2.45;;
8610;SDS011;4343;53.648;10.098;2022-08-11T06:20:06;3.13;;;2.28;;
8610;SDS011;4343;53.648;10.098;2022-08-11T06:22:37;2.38;;;2.17;;
8610;SDS011;4343;53.648;10.098;2022-08-11T06:25:06;3.40;;;3.10;;
8610;SDS011;4343;53.648;10.098;2022-08-11T06:27:34;2.40;;;2.30;;
8610;SDS011;4343;53.648;10.098;2022-08-11T06:30:02;2.15;;;2.05;;
8610;SDS011;4343;53.648;10.098;2022-08-11T06:32:38;2.38;;;2.30;;
8610;SDS011;4343;53.648;10.098;2022-08-11T06:38:09;2.33;;;2.13;;
8610;SDS011;4343;53.648;10.098;2022-08-11T06:40:57;2.75;;;2.25;;
8610;SDS011;4343;53.648;10.098;2022-08-11T06:46:39;2.42;;;2.08;;
8610;SDS011;4343;53.648;10.098;2022-08-11T06:49:11;2.10;;;2.00;;
8610;SDS011;4343;53.648;10.098;2022-08-11T06:52:00;2.30;;;2.20;;
8610;SDS011;4343;53.648;10.098;2022-08-11T06:54:39;2.40;;;2.30;;
8610;SDS011;4343;53.648;10.098;2022-08-11T06:57:10;2.83;;;2.63;;
8610;SDS011;4343;53.648;10.098;2022-08-11T06:59:56;2.05;;;1.95;;
8610;SDS011;4343;53.648;10.098;2022-08-11T07:05:20;3.20;;;2.30;;
8610;SDS011;4343;53.648;10.098;2022-08-11T07:11:19;2.25;;;2.05;;
8610;SDS011;4343;53.648;10.098;2022-08-11T07:14:32;2.03;;;1.90;;
8610;SDS011;4343;53.648;10.098;2022-08-11T07:17:21;2.67;;;1.98;;
8610;SDS011;4343;53.648;10.098;2022-08-11T07:19:55;1.73;;;1.70;;
8610;SDS011;4343;53.648;10.098;2022-08-11T07:22:42;1.63;;;1.63;;
8610;SDS011;4343;53.648;10.098;2022-08-11T07:25:38;1.60;;;1.60;;
8610;SDS011;4343;53.648;10.098;2022-08-11T07:28:25;2.38;;;2.15;;
8610;SDS011;4343;53.648;10.098;2022-08-11T07:34:04;3.83;;;2.30;;
8610;SDS011;4343;53.648;10.098;2022-08-11T07:36:41;2.08;;;1.98;;
8610;SDS011;4343;53.648;10.098;2022-08-11T07:39:15;2.20;;;1.98;;
8610;SDS011;4343;53.648;10.098;2022-08-11T07:41:44;1.70;;;1.67;;
8610;SDS011;4343;53.648;10.098;2022-08-11T07:44:11;2.20;;;2.10;;
8610;SDS011;4343;53.648;10.098;2022-08-11T07:46:40;1.73;;;1.63;;
8610;SDS011;4343;53.648;10.098;2022-08-11T07:49:25;2.28;;;2.10;;
8610;SDS011;4343;53.648;10.098;2022-08-11T07:52:12;2.00;;;1.90;;
8610;SDS011;4343;53.648;10.098;2022-08-11T07:55:02;1.88;;;1.77;;
8610;SDS011;4343;53.648;10.098;2022-08-11T07:57:33;2.10;;;2.00;;
8610;SDS011;4343;53.648;10.098;2022-08-11T08:00:18;2.33;;;2.08;;
8610;SDS011;4343;53.648;10.098;2022-08-11T08:03:03;1.65;;;1.58;;
8610;SDS011;4343;53.648;10.098;2022-08-11T08:05:49;1.90;;;1.80;;
8610;SDS011;4343;53.648;10.098;2022-08-11T08:08:35;1.88;;;1.77;;
8610;SDS011;4343;53.648;10.098;2022-08-11T08:11:20;4.82;;;2.20;;
8610;SDS011;4343;53.648;10.098;2022-08-11T08:14:08;2.13;;;1.92;;
8610;SDS011;4343;53.648;10.098;2022-08-11T08:16:54;1.95;;;1.88;;
8610;SDS011;4343;53.648;10.098;2022-08-11T08:19:39;2.28;;;2.00;;
8610;SDS011;4343;53.648;10.098;2022-08-11T08:22:09;2.03;;;1.90;;
8610;SDS011;4343;53.648;10.098;2022-08-11T08:24:35;2.25;;;1.90;;
8610;SDS011;4343;53.648;10.098;2022-08-11T08:27:05;2.10;;;1.63;;
8610;SDS011;4343;53.648;10.098;2022-08-11T08:29:33;3.78;;;2.00;;
8610;SDS011;4343;53.648;10.098;2022-08-11T08:32:20;2.00;;;1.98;;
8610;SDS011;4343;53.648;10.098;2022-08-11T08:34:49;2.42;;;2.33;;
8610;SDS011;4343;53.648;10.098;2022-08-11T08:37:19;2.28;;;2.17;;
8610;SDS011;4343;53.648;10.098;2022-08-11T08:39:48;1.80;;;1.70;;
8610;SDS011;4343;53.648;10.098;2022-08-11T08:42:17;2.15;;;2.05;;
8610;SDS011;4343;53.648;10.098;2022-08-11T08:45:01;1.95;;;1.85;;
8610;SDS011;4343;53.648;10.098;2022-08-11T08:47:35;2.42;;;2.13;;
8610;SDS011;4343;53.648;10.098;2022-08-11T08:50:10;1.95;;;1.95;;
8610;SDS011;4343;53.648;10.098;2022-08-11T08:52:51;1.80;;;1.80;;
8610;SDS011;4343;53.648;10.098;2022-08-11T08:55:30;1.73;;;1.73;;
8610;SDS011;4343;53.648;10.098;2022-08-11T08:58:07;2.22;;;1.98;;
8610;SDS011;4343;53.648;10.098;2022-08-11T09:00:40;3.47;;;2.15;;
8610;SDS011;4343;53.648;10.098;2022-08-11T09:03:14;1.88;;;1.77;;
8610;SDS011;4343;53.648;10.098;2022-08-11T09:05:44;2.55;;;2.00;;
8610;SDS011;4343;53.648;10.098;2022-08-11T09:08:16;3.00;;;1.95;;
8610;SDS011;4343;53.648;10.098;2022-08-11T09:10:46;2.17;;;2.08;;
8610;SDS011;4343;53.648;10.098;2022-08-11T09:13:35;2.42;;;1.95;;
8610;SDS011;4343;53.648;10.098;2022-08-11T09:16:14;1.90;;;1.80;;
8610;SDS011;4343;53.648;10.098;2022-08-11T09:18:40;1.65;;;1.63;;
8610;SDS011;4343;53.648;10.098;2022-08-11T09:21:31;1.77;;;1.73;;
8610;SDS011;4343;53.648;10.098;2022-08-11T09:24:50;2.53;;;1.80;;
8610;SDS011;4343;53.648;10.098;2022-08-11T09:27:38;2.20;;;1.98;;
8610;SDS011;4343;53.648;10.098;2022-08-11T09:30:48;2.35;;;2.15;;
8610;SDS011;4343;53.648;10.098;2022-08-11T09:33:23;4.05;;;1.90;;
8610;SDS011;4343;53.648;10.098;2022-08-11T09:36:13;1.98;;;1.85;;
8610;SDS011;4343;53.648;10.098;2022-08-11T09:39:15;1.98;;;1.80;;
8610;SDS011;4343;53.648;10.098;2022-08-11T09:42:25;2.58;;;2.25;;
8610;SDS011;4343;53.648;10.098;2022-08-11T09:45:56;1.73;;;1.63;;
8610;SDS011;4343;53.648;10.098;2022-08-11T09:48:47;1.85;;;1.75;;
8610;SDS011;4343;53.648;10.098;2022-08-11T09:51:49;1.50;;;1.50;;
8610;SDS011;4343;53.648;10.098;2022-08-11T09:54:18;2.13;;;1.70;;
8610;SDS011;4343;53.648;10.098;2022-08-11T09:56:53;1.30;;;1.30;;
8610;SDS011;4343;53.648;10.098;2022-08-11T09:59:38;1.65;;;1.55;;
8610;SDS011;4343;53.648;10.098;2022-08-11T10:02:44;1.90;;;1.80;;
8610;SDS011;4343;53.648;10.098;2022-08-11T10:05:18;1.67;;;1.58;;
8610;SDS011;4343;53.648;10.098;2022-08-11T10:08:04;1.73;;;1.70;;
8610;SDS011;4343;53.648;10.098;2022-08-11T10:10:38;1.60;;;1.60;;
8610;SDS011;4343;53.648;10.098;2022-08-11T10:13:08;1.73;;;1.63;;
8610;SDS011;4343;53.648;10.098;2022-08-11T10:16:03;1.83;;;1.55;;
8610;SDS011;4343;53.648;10.098;2022-08-11T10:18:50;5.50;;;1.60;;
8610;SDS011;4343;53.648;10.098;2022-08-11T10:22:05;1.77;;;1.50;;
8610;SDS011;4343;53.648;10.098;2022-08-11T10:25:21;1.85;;;1.77;;
8610;SDS011;4343;53.648;10.098;2022-08-11T10:28:36;1.52;;;1.52;;
8610;SDS011;4343;53.648;10.098;2022-08-11T10:31:52;1.63;;;1.52;;
8610;SDS011;4343;53.648;10.098;2022-08-11T10:34:44;1.77;;;1.67;;
8610;SDS011;4343;53.648;10.098;2022-08-11T10:37:18;2.45;;;2.25;;
8610;SDS011;4343;53.648;10.098;2022-08-11T10:40:13;2.20;;;2.10;;
8610;SDS011;4343;53.648;10.098;2022-08-11T10:43:16;2.00;;;1.90;;
8610;SDS011;4343;53.648;10.098;2022-08-11T10:46:36;2.30;;;2.10;;
8610;SDS011;4343;53.648;10.098;2022-08-11T10:49:51;2.75;;;1.95;;
8610;SDS011;4343;53.648;10.098;2022-08-11T10:53:16;1.60;;;1.60;;
8610;SDS011;4343;53.648;10.098;2022-08-11T10:56:06;1.50;;;1.50;;
8610;SDS011;4343;53.648;10.098;2022-08-11T10:58:54;1.70;;;1.70;;
8610;SDS011;4343;53.648;10.098;2022-08-11T11:01:34;1.48;;;1.48;;
8610;SDS011;4343;53.648;10.098;2022-08-11T11:05:33;2.22;;;1.63;;
8610;SDS011;4343;53.648;10.098;2022-08-11T11:07:37;1.40;;;1.40;;
8610;SDS011;4343;53.648;10.098;2022-08-11T11:11:02;1.35;;;1.35;;
8610;SDS011;4343;53.648;10.098;2022-08-11T11:14:18;1.58;;;1.50;;
8610;SDS011;4343;53.648;10.098;2022-08-11T11:17:41;1.35;;;1.30;;
8610;SDS011;4343;53.648;10.098;2022-08-11T11:20:42;1.70;;;1.60;;
8610;SDS011;4343;53.648;10.098;2022-08-11T11:23:36;1.90;;;1.70;;
8610;SDS011;4343;53.648;10.098;2022-08-11T11:26:59;1.40;;;1.40;;
8610;SDS011;4343;53.648;10.098;2022-08-11T11:30:17;1.50;;;1.30;;
8610;SDS011;4343;53.648;10.098;2022-08-11T11:32:58;1.30;;;1.30;;
8610;SDS011;4343;53.648;10.098;2022-08-11T11:36:08;1.50;;;1.40;;
8610;SDS011;4343;53.648;10.098;2022-08-11T11:39:36;5.70;;;1.75;;
8610;SDS011;4343;53.648;10.098;2022-08-11T11:42:28;1.63;;;1.60;;
8610;SDS011;4343;53.648;10.098;2022-08-11T11:44:56;2.63;;;1.30;;
8610;SDS011;4343;53.648;10.098;2022-08-11T11:47:25;1.38;;;1.23;;
8610;SDS011;4343;53.648;10.098;2022-08-11T11:49:56;1.40;;;1.40;;
8610;SDS011;4343;53.648;10.098;2022-08-11T11:52:27;1.48;;;1.48;;
8610;SDS011;4343;53.648;10.098;2022-08-11T11:54:59;1.33;;;1.27;;
8610;SDS011;4343;53.648;10.098;2022-08-11T11:57:33;1.50;;;1.40;;
8610;SDS011;4343;53.648;10.098;2022-08-11T12:00:19;1.50;;;1.50;;
8610;SDS011;4343;53.648;10.098;2022-08-11T12:03:15;1.25;;;1.25;;
8610;SDS011;4343;53.648;10.098;2022-08-11T12:05:42;1.95;;;1.60;;
8610;SDS011;4343;53.648;10.098;2022-08-11T12:08:11;1.45;;;1.40;;
8610;SDS011;4343;53.648;10.098;2022-08-11T12:10:47;1.20;;;1.20;;
8610;SDS011;4343;53.648;10.098;2022-08-11T12:13:42;1.30;;;1.30;;
8610;SDS011;4343;53.648;10.098;2022-08-11T12:16:15;1.60;;;1.50;;
8610;SDS011;4343;53.648;10.098;2022-08-11T12:18:48;1.35;;;1.35;;
8610;SDS011;4343;53.648;10.098;2022-08-11T12:21:19;1.23;;;1.23;;
8610;SDS011;4343;53.648;10.098;2022-08-11T12:23:57;1.50;;;1.50;;
8610;SDS011;4343;53.648;10.098;2022-08-11T12:26:44;1.48;;;1.48;;
8610;SDS011;4343;53.648;10.098;2022-08-11T12:29:15;1.38;;;1.38;;
8610;SDS011;4343;53.648;10.098;2022-08-11T12:32:05;1.65;;;1.42;;
8610;SDS011;4343;53.648;10.098;2022-08-11T12:34:32;1.67;;;1.58;;
8610;SDS011;4343;53.648;10.098;2022-08-11T12:37:09;2.63;;;1.50;;
8610;SDS011;4343;53.648;10.098;2022-08-11T12:39:39;1.30;;;1.30;;
8610;SDS011;4343;53.648;10.098;2022-08-11T12:42:32;1.35;;;1.25;;
8610;SDS011;4343;53.648;10.098;2022-08-11T12:45:19;1.52;;;1.42;;
8610;SDS011;4343;53.648;10.098;2022-08-11T12:48:00;1.58;;;1.48;;
8610;SDS011;4343;53.648;10.098;2022-08-11T12:51:14;1.45;;;1.30;;
8610;SDS011;4343;53.648;10.098;2022-08-11T12:54:09;1.25;;;1.10;;
8610;SDS011;4343;53.648;10.098;2022-08-11T12:56:51;2.58;;;1.13;;
8610;SDS011;4343;53.648;10.098;2022-08-11T12:59:44;2.97;;;1.45;;
8610;SDS011;4343;53.648;10.098;2022-08-11T13:02:31;2.92;;;1.30;;
8610;SDS011;4343;53.648;10.098;2022-08-11T13:05:40;1.27;;;1.17;;
8610;SDS011;4343;53.648;10.098;2022-08-11T13:08:33;1.40;;;1.40;;
8610;SDS011;4343;53.648;10.098;2022-08-11T13:11:41;1.40;;;1.30;;
8610;SDS011;4343;53.648;10.098;2022-08-11T13:14:53;1.38;;;1.38;;
8610;SDS011;4343;53.648;10.098;2022-08-11T13:18:04;1.20;;;1.20;;
8610;SDS011;4343;53.648;10.098;2022-08-11T13:20:53;2.15;;;1.10;;
8610;SDS011;4343;53.648;10.098;2022-08-11T13:23:21;1.75;;;1.60;;
8610;SDS011;4343;53.648;10.098;2022-08-11T13:26:04;1.42;;;1.33;;
8610;SDS011;4343;53.648;10.098;2022-08-11T13:28:35;1.63;;;1.42;;
8610;SDS011;4343;53.648;10.098;2022-08-11T13:31:10;1.33;;;1.33;;
8610;SDS011;4343;53.648;10.098;2022-08-11T13:33:40;1.17;;;1.17;;
8610;SDS011;4343;53.648;10.098;2022-08-11T13:36:18;1.75;;;1.30;;
8610;SDS011;4343;53.648;10.098;2022-08-11T13:38:49;1.35;;;1.35;;
8610;SDS011;4343;53.648;10.098;2022-08-11T13:41:24;1.48;;;1.48;;
8610;SDS011;4343;53.648;10.098;2022-08-11T13:44:12;3.20;;;1.27;;
8610;SDS011;4343;53.648;10.098;2022-08-11T13:46:46;2.35;;;1.20;;
8610;SDS011;4343;53.648;10.098;2022-08-11T13:49:24;1.48;;;1.48;;
8610;SDS011;4343;53.648;10.098;2022-08-11T13:52:42;1.40;;;1.40;;
8610;SDS011;4343;53.648;10.098;2022-08-11T13:55:11;1.40;;;1.27;;
8610;SDS011;4343;53.648;10.098;2022-08-11T13:57:50;1.30;;;1.20;;
8610;SDS011;4343;53.648;10.098;2022-08-11T14:00:21;1.38;;;1.08;;
8610;SDS011;4343;53.648;10.098;2022-08-11T14:03:09;1.85;;;1.30;;
8610;SDS011;4343;53.648;10.098;2022-08-11T14:05:49;1.35;;;1.35;;
8610;SDS011;4343;53.648;10.098;2022-08-11T14:08:25;3.17;;;1.25;;
8610;SDS011;4343;53.648;10.098;2022-08-11T14:11:01;1.33;;;1.30;;
8610;SDS011;4343;53.648;10.098;2022-08-11T14:13:52;2.70;;;1.40;;
8610;SDS011;4343;53.648;10.098;2022-08-11T14:16:46;1.38;;;1.27;;
8610;SDS011;4343;53.648;10.098;2022-08-11T14:19:17;1.30;;;1.30;;
8610;SDS011;4343;53.648;10.098;2022-08-11T14:21:54;1.35;;;1.35;;
8610;SDS011;4343;53.648;10.098;2022-08-11T14:24:37;1.65;;;1.55;;
8610;SDS011;4343;53.648;10.098;2022-08-11T14:27:08;1.27;;;1.20;;
8610;SDS011;4343;53.648;10.098;2022-08-11T14:29:39;2.70;;;1.50;;
8610;SDS011;4343;53.648;10.098;2022-08-11T14:32:14;1.58;;;1.48;;
8610;SDS011;4343;53.648;10.098;2022-08-11T14:34:46;1.60;;;1.52;;
8610;SDS011;4343;53.648;10.098;2022-08-11T14:37:36;1.75;;;1.48;;
8610;SDS011;4343;53.648;10.098;2022-08-11T14:40:05;1.48;;;1.40;;
8610;SDS011;4343;53.648;10.098;2022-08-11T14:42:56;1.35;;;1.35;;
8610;SDS011;4343;53.648;10.098;2022-08-11T14:45:43;1.67;;;1.58;;
8610;SDS011;4343;53.648;10.098;2022-08-11T14:48:33;1.60;;;1.50;;
8610;SDS011;4343;53.648;10.098;2022-08-11T14:51:03;1.52;;;1.40;;
8610;SDS011;4343;53.648;10.098;2022-08-11T14:53:36;2.05;;;1.40;;
8610;SDS011;4343;53.648;10.098;2022-08-11T14:56:07;1.45;;;1.40;;
8610;SDS011;4343;53.648;10.098;2022-08-11T14:59:02;1.80;;;1.70;;
8610;SDS011;4343;53.648;10.098;2022-08-11T15:01:41;1.60;;;1.50;;
8610;SDS011;4343;53.648;10.098;2022-08-11T15:05:11;1.48;;;1.40;;
8610;SDS011;4343;53.648;10.098;2022-08-11T15:08:47;2.88;;;1.40;;
8610;SDS011;4343;53.648;10.098;2022-08-11T15:11:54;1.60;;;1.50;;
8610;SDS011;4343;53.648;10.098;2022-08-11T15:15:02;1.63;;;1.52;;
8610;SDS011;4343;53.648;10.098;2022-08-11T15:18:10;1.58;;;1.52;;
8610;SDS011;4343;53.648;10.098;2022-08-11T15:21:02;1.17;;;1.17;;
8610;SDS011;4343;53.648;10.098;2022-08-11T15:24:07;1.73;;;1.63;;
8610;SDS011;4343;53.648;10.098;2022-08-11T15:26:45;1.42;;;1.27;;
8610;SDS011;4343;53.648;10.098;2022-08-11T15:29:33;1.48;;;1.40;;
8610;SDS011;4343;53.648;10.098;2022-08-11T15:32:20;2.22;;;1.40;;
8610;SDS011;4343;53.648;10.098;2022-08-11T15:35:47;2.95;;;1.33;;
8610;SDS011;4343;53.648;10.098;2022-08-11T15:39:11;1.60;;;1.30;;
8610;SDS011;4343;53.648;10.098;2022-08-11T15:42:29;2.25;;;1.38;;
8610;SDS011;4343;53.648;10.098;2022-08-11T15:45:54;1.45;;;1.42;;
8610;SDS011;4343;53.648;10.098;2022-08-11T15:49:34;1.60;;;1.60;;
8610;SDS011;4343;53.648;10.098;2022-08-11T15:52:15;1.45;;;1.45;;
8610;SDS011;4343;53.648;10.098;2022-08-11T15:55:09;1.73;;;1.60;;
8610;SDS011;4343;53.648;10.098;2022-08-11T15:58:21;1.45;;;1.45;;
8610;SDS011;4343;53.648;10.098;2022-08-11T16:01:08;1.67;;;1.58;;
8610;SDS011;4343;53.648;10.098;2022-08-11T16:04:02;1.63;;;1.25;;
8610;SDS011;4343;53.648;10.098;2022-08-11T16:10:03;2.13;;;1.45;;
8610;SDS011;4343;53.648;10.098;2022-08-11T16:12:59;1.30;;;1.20;;
8610;SDS011;4343;53.648;10.098;2022-08-11T16:15:53;1.67;;;1.58;;
8610;SDS011;4343;53.648;10.098;2022-08-11T16:18:41;1.38;;;1.38;;
8610;SDS011;4343;53.648;10.098;2022-08-11T16:25:18;1.52;;;1.50;;
8610;SDS011;4343;53.648;10.098;2022-08-11T16:28:49;1.60;;;1.50;;
8610;SDS011;4343;53.648;10.098;2022-08-11T16:32:07;2.70;;;1.50;;
8610;SDS011;4343;53.648;10.098;2022-08-11T16:35:29;1.40;;;1.40;;
8610;SDS011;4343;53.648;10.098;2022-08-11T16:38:34;2.38;;;1.30;;
8610;SDS011;4343;53.648;10.098;2022-08-11T16:41:30;1.25;;;1.25;;
8610;SDS011;4343;53.648;10.098;2022-08-11T16:45:01;1.55;;;1.48;;
8610;SDS011;4343;53.648;10.098;2022-08-11T16:48:20;1.98;;;1.45;;
8610;SDS011;4343;53.648;10.098;2022-08-11T16:51:31;2.33;;;1.50;;
8610;SDS011;4343;53.648;10.098;2022-08-11T16:57:41;1.27;;;1.20;;
8610;SDS011;4343;53.648;10.098;2022-08-11T17:01:20;2.15;;;1.30;;
8610;SDS011;4343;53.648;10.098;2022-08-11T17:04:22;1.60;;;1.50;;
8610;SDS011;4343;53.648;10.098;2022-08-11T17:07:18;2.15;;;1.52;;
8610;SDS011;4343;53.648;10.098;2022-08-11T17:10:07;1.83;;;1.50;;
8610;SDS011;4343;53.648;10.098;2022-08-11T17:13:03;1.88;;;1.80;;
8610;SDS011;4343;53.648;10.098;2022-08-11T17:16:10;1.42;;;1.33;;
8610;SDS011;4343;53.648;10.098;2022-08-11T17:22:11;1.42;;;1.40;;
8610;SDS011;4343;53.648;10.098;2022-08-11T17:28:58;1.00;;;1.00;;
8610;SDS011;4343;53.648;10.098;2022-08-11T17:31:35;1.50;;;1.40;;
8610;SDS011;4343;53.648;10.098;2022-08-11T17:34:23;1.25;;;1.25;;
8610;SDS011;4343;53.648;10.098;2022-08-11T17:37:08;1.48;;;1.38;;
8610;SDS011;4343;53.648;10.098;2022-08-11T17:39:34;1.33;;;1.23;;
8610;SDS011;4343;53.648;10.098;2022-08-11T17:42:00;3.80;;;1.35;;
8610;SDS011;4343;53.648;10.098;2022-08-11T17:44:44;1.75;;;1.23;;
8610;SDS011;4343;53.648;10.098;2022-08-11T17:47:31;1.45;;;1.17;;
8610;SDS011;4343;53.648;10.098;2022-08-11T17:50:17;1.45;;;1.45;;
8610;SDS011;4343;53.648;10.098;2022-08-11T17:52:43;1.60;;;1.50;;
8610;SDS011;4343;53.648;10.098;2022-08-11T17:55:29;1.70;;;1.60;;
8610;SDS011;4343;53.648;10.098;2022-08-11T17:58:16;1.42;;;1.33;;
8610;SDS011;4343;53.648;10.098;2022-08-11T18:01:02;1.50;;;1.40;;
8610;SDS011;4343;53.648;10.098;2022-08-11T18:03:29;1.73;;;1.63;;
8610;SDS011;4343;53.648;10.098;2022-08-11T18:06:01;2.55;;;1.33;;
8610;SDS011;4343;53.648;10.098;2022-08-11T18:08:29;1.27;;;1.25;;
8610;SDS011;4343;53.648;10.098;2022-08-11T18:11:15;2.40;;;1.48;;
8610;SDS011;4343;53.648;10.098;2022-08-11T18:14:01;1.73;;;1.70;;
8610;SDS011;4343;53.648;10.098;2022-08-11T18:16:48;1.52;;;1.42;;
8610;SDS011;4343;53.648;10.098;2022-08-11T18:19:32;1.20;;;1.20;;
8610;SDS011;4343;53.648;10.098;2022-08-11T18:22:30;1.58;;;1.50;;
8610;SDS011;4343;53.648;10.098;2022-08-11T18:25:20;1.45;;;1.35;;
8610;SDS011;4343;53.648;10.098;2022-08-11T18:28:08;1.52;;;1.42;;
8610;SDS011;4343;53.648;10.098;2022-08-11T18:30:59;2.30;;;1.30;;
8610;SDS011;4343;53.648;10.098;2022-08-11T18:33:52;1.23;;;1.20;;
8610;SDS011;4343;53.648;10.098;2022-08-11T18:36:38;1.58;;;1.48;;
8610;SDS011;4343;53.648;10.098;2022-08-11T18:39:44;1.38;;;1.27;;
8610;SDS011;4343;53.648;10.098;2022-08-11T18:42:32;1.45;;;1.40;;
8610;SDS011;4343;53.648;10.098;2022-08-11T18:45:19;1.30;;;1.30;;
8610;SDS011;4343;53.648;10.098;2022-08-11T18:48:09;2.20;;;1.65;;
8610;SDS011;4343;53.648;10.098;2022-08-11T18:50:59;1.63;;;1.52;;
8610;SDS011;4343;53.648;10.098;2022-08-11T18:53:47;1.75;;;1.30;;
8610;SDS011;4343;53.648;10.098;2022-08-11T18:56:35;1.35;;;1.35;;
8610;SDS011;4343;53.648;10.098;2022-08-11T18:59:21;1.27;;;1.27;;
8610;SDS011;4343;53.648;10.098;2022-08-11T19:02:09;1.27;;;1.27;;
8610;SDS011;4343;53.648;10.098;2022-08-11T19:04:55;1.70;;;1.60;;
8610;SDS011;4343;53.648;10.098;2022-08-11T19:07:42;1.65;;;1.55;;
8610;SDS011;4343;53.648;10.098;2022-08-11T19:10:29;1.27;;;1.27;;
8610;SDS011;4343;53.648;10.098;2022-08-11T19:13:14;1.38;;;1.30;;
8610;SDS011;4343;53.648;10.098;2022-08-11T19:16:00;2.45;;;1.55;;
8610;SDS011;4343;53.648;10.098;2022-08-11T19:18:46;1.58;;;1.58;;
8610;SDS011;4343;53.648;10.098;2022-08-11T19:21:32;1.70;;;1.60;;
8610;SDS011;4343;53.648;10.098;2022-08-11T19:24:19;1.35;;;1.27;;
8610;SDS011;4343;53.648;10.098;2022-08-11T19:27:04;1.30;;;1.30;;
8610;SDS011;4343;53.648;10.098;2022-08-11T19:29:49;1.70;;;1.60;;
8610;SDS011;4343;53.648;10.098;2022-08-11T19:32:34;1.65;;;1.55;;
8610;SDS011;4343;53.648;10.098;2022-08-11T19:35:21;3.25;;;1.52;;
8610;SDS011;4343;53.648;10.098;2022-08-11T19:38:06;1.70;;;1.60;;
8610;SDS011;4343;53.648;10.098;2022-08-11T19:40:51;1.75;;;1.65;;
8610;SDS011;4343;53.648;10.098;2022-08-11T19:43:37;1.48;;;1.35;;
8610;SDS011;4343;53.648;10.098;2022-08-11T19:46:22;4.72;;;1.77;;
8610;SDS011;4343;53.648;10.098;2022-08-11T19:49:08;2.47;;;1.92;;
8610;SDS011;4343;53.648;10.098;2022-08-11T19:51:54;1.98;;;1.45;;
8610;SDS011;4343;53.648;10.098;2022-08-11T19:54:39;1.75;;;1.25;;
8610;SDS011;4343;53.648;10.098;2022-08-11T19:57:24;1.73;;;1.55;;
8610;SDS011;4343;53.648;10.098;2022-08-11T20:00:13;3.97;;;1.45;;
8610;SDS011;4343;53.648;10.098;2022-08-11T20:03:02;2.92;;;1.42;;
8610;SDS011;4343;53.648;10.098;2022-08-11T20:05:48;1.63;;;1.52;;
8610;SDS011;4343;53.648;10.098;2022-08-11T20:08:33;2.13;;;1.92;;
8610;SDS011;4343;53.648;10.098;2022-08-11T20:11:21;1.35;;;1.33;;
8610;SDS011;4343;53.648;10.098;2022-08-11T20:14:06;1.50;;;1.40;;
8610;SDS011;4343;53.648;10.098;2022-08-11T20:16:52;1.65;;;1.55;;
8610;SDS011;4343;53.648;10.098;2022-08-11T20:19:38;1.65;;;1.55;;